Time;durP1;ratioP1;P1;durP2;ratioP2;P2;SDS_P1;SDS_P2;PMS_P1;PMS_P2;Temp;Humidity;BMP_temperature;BMP_pressure;BME280_temperature;BME280_humidity;BME280_pressure;Samples;Min_cycle;Max_cycle;Signal;HPM_P1;HPM_P2
2023/08/06 00:00:17;;;;;;;7.38;4.78;;;14.30;99.90;;;;;;5085360;28;20040;-71
2023/08/06 00:02:42;;;;;;;6.47;4.82;;;14.30;99.90;;;;;;5069953;28;20115;-72
2023/08/06 00:05:08;;;;;;;7.43;4.35;;;14.30;99.90;;;;;;5075113;28;20029;-71
2023/08/06 00:07:33;;;;;;;10.25;4.55;;;14.30;99.90;;;;;;5071580;28;20024;-72
2023/08/06 00:09:59;;;;;;;7.82;4.78;;;14.30;99.90;;;;;;5071313;28;20117;-72
2023/08/06 00:12:25;;;;;;;8.30;4.72;;;14.20;99.90;;;;;;5072788;28;20039;-72
2023/08/06 00:14:52;;;;;;;10.38;4.60;;;14.20;99.90;;;;;;5078086;28;20551;-72
2023/08/06 00:17:18;;;;;;;9.63;4.22;;;14.30;99.90;;;;;;5065472;28;20031;-71
2023/08/06 00:19:43;;;;;;;9.05;4.60;;;14.30;99.90;;;;;;5065638;28;20104;-72
2023/08/06 00:22:09;;;;;;;6.95;4.68;;;14.20;99.90;;;;;;5069310;28;20094;-70
2023/08/06 00:24:35;;;;;;;6.55;4.25;;;14.20;99.90;;;;;;5084189;28;20048;-72
2023/08/06 00:27:02;;;;;;;9.23;4.55;;;14.20;99.90;;;;;;5084275;28;20024;-71
2023/08/06 00:29:27;;;;;;;5.78;3.85;;;14.20;99.90;;;;;;5084076;28;20035;-71
2023/08/06 00:31:53;;;;;;;9.40;4.72;;;14.20;99.90;;;;;;5085494;28;20040;-72
2023/08/06 00:34:18;;;;;;;8.77;4.32;;;14.20;99.90;;;;;;5085462;28;20061;-70
2023/08/06 00:36:44;;;;;;;8.60;4.60;;;14.20;99.90;;;;;;5083866;28;20040;-70
2023/08/06 00:39:10;;;;;;;5.55;4.10;;;14.20;99.90;;;;;;5084749;28;20102;-73
2023/08/06 00:41:35;;;;;;;7.82;4.55;;;14.20;99.90;;;;;;5085043;28;20389;-71
2023/08/06 00:44:01;;;;;;;6.60;4.28;;;14.20;99.90;;;;;;5084698;28;20072;-71
2023/08/06 00:46:27;;;;;;;5.63;4.68;;;14.20;99.90;;;;;;5085403;28;20031;-71
2023/08/06 00:48:53;;;;;;;9.23;4.40;;;14.20;99.90;;;;;;5084855;28;20020;-73
2023/08/06 00:51:20;;;;;;;8.88;4.93;;;14.20;99.90;;;;;;5084328;28;20410;-74
2023/08/06 00:53:46;;;;;;;8.00;4.85;;;14.20;99.90;;;;;;5083774;28;20054;-70
2023/08/06 00:56:12;;;;;;;10.93;5.05;;;14.20;99.90;;;;;;5083756;28;20035;-73
2023/08/06 00:58:39;;;;;;;6.30;4.88;;;14.20;99.90;;;;;;5083509;28;20051;-71
2023/08/06 01:01:04;;;;;;;8.82;4.95;;;14.20;99.90;;;;;;5085114;28;20032;-72
2023/08/06 01:03:30;;;;;;;7.93;4.60;;;14.20;99.90;;;;;;5083712;28;20068;-73
2023/08/06 01:05:56;;;;;;;7.10;4.82;;;14.20;99.90;;;;;;5083234;28;20031;-70
2023/08/06 01:09:01;;;;;;;9.63;4.25;;;14.20;99.90;;;;;;5085281;28;20028;-70
2023/08/06 01:11:44;;;;;;;7.97;5.00;;;14.20;99.90;;;;;;5084835;28;20028;-71
2023/08/06 01:14:21;;;;;;;10.57;5.30;;;14.20;99.90;;;;;;5084445;28;20033;-71
2023/08/06 01:16:49;;;;;;;10.82;5.25;;;14.20;99.90;;;;;;5085042;28;20040;-71
2023/08/06 01:19:18;;;;;;;8.63;5.63;;;14.10;99.90;;;;;;5084445;28;20389;-70
2023/08/06 01:21:44;;;;;;;12.45;6.57;;;14.20;99.90;;;;;;5083085;28;20397;-72
2023/08/06 01:24:10;;;;;;;13.77;6.00;;;14.20;99.90;;;;;;5083355;28;20036;-71
2023/08/06 01:26:45;;;;;;;9.63;6.07;;;14.10;99.90;;;;;;5082774;28;20056;-72
2023/08/06 01:29:23;;;;;;;14.48;6.70;;;14.20;99.90;;;;;;5084664;28;20025;-71
2023/08/06 01:31:52;;;;;;;12.65;6.15;;;14.10;99.90;;;;;;5084512;28;20041;-71
2023/08/06 01:34:21;;;;;;;10.15;6.45;;;14.10;99.90;;;;;;5084338;28;20077;-71
2023/08/06 01:36:48;;;;;;;14.88;7.07;;;14.20;99.90;;;;;;5084709;28;20082;-71
2023/08/06 01:39:13;;;;;;;10.20;6.63;;;14.20;99.90;;;;;;5084226;28;20036;-71
2023/08/06 01:41:39;;;;;;;11.90;6.38;;;14.20;99.90;;;;;;5083207;28;20032;-70
2023/08/06 01:44:05;;;;;;;11.52;6.93;;;14.20;99.90;;;;;;5083012;28;20035;-73
2023/08/06 01:46:30;;;;;;;12.85;7.15;;;14.10;99.90;;;;;;5084345;28;20039;-74
2023/08/06 01:48:56;;;;;;;12.57;6.85;;;14.10;99.90;;;;;;5082735;28;20048;-73
2023/08/06 01:51:22;;;;;;;14.60;6.57;;;14.10;99.90;;;;;;5082404;28;20057;-71
2023/08/06 01:53:47;;;;;;;11.25;6.47;;;14.10;99.90;;;;;;5083790;28;20029;-74
2023/08/06 01:56:13;;;;;;;13.30;6.70;;;14.20;99.90;;;;;;5084391;28;20020;-72
2023/08/06 01:58:38;;;;;;;15.70;7.57;;;14.20;99.90;;;;;;5084089;28;20052;-71
2023/08/06 02:01:04;;;;;;;14.40;7.72;;;14.10;99.90;;;;;;5082726;28;20106;-71
2023/08/06 02:03:30;;;;;;;13.95;7.40;;;14.10;99.90;;;;;;5083146;28;20031;-71
2023/08/06 02:05:55;;;;;;;11.65;6.97;;;14.20;99.90;;;;;;5082905;28;20063;-72
2023/08/06 02:08:24;;;;;;;11.95;6.45;;;14.20;99.90;;;;;;5084046;28;20054;-73
2023/08/06 02:10:50;;;;;;;11.45;6.38;;;14.10;99.90;;;;;;5084389;28;20025;-71
2023/08/06 02:13:15;;;;;;;15.80;7.10;;;14.20;99.90;;;;;;5083902;28;20052;-73
2023/08/06 02:15:47;;;;;;;14.02;6.63;;;14.10;99.90;;;;;;5082764;28;20029;-71
2023/08/06 02:18:14;;;;;;;10.98;6.55;;;14.10;99.90;;;;;;5084217;28;20028;-72
2023/08/06 02:20:40;;;;;;;10.43;7.10;;;14.10;99.90;;;;;;5083653;28;20043;-71
2023/08/06 02:23:06;;;;;;;14.32;6.43;;;14.10;99.90;;;;;;5083868;28;20025;-72
2023/08/06 02:25:32;;;;;;;9.40;6.50;;;14.10;99.90;;;;;;5084350;28;20526;-72
2023/08/06 02:27:57;;;;;;;13.40;6.82;;;14.10;99.90;;;;;;5082685;28;20025;-72
2023/08/06 02:30:23;;;;;;;11.18;6.28;;;14.10;99.90;;;;;;5083992;28;20116;-72
2023/08/06 02:32:48;;;;;;;9.85;6.53;;;14.10;99.90;;;;;;5084059;28;20123;-72
2023/08/06 02:35:14;;;;;;;11.57;6.40;;;14.10;99.90;;;;;;5086155;28;20031;-72
2023/08/06 02:37:40;;;;;;;11.57;6.25;;;14.10;99.90;;;;;;5087522;28;20074;-72
2023/08/06 02:40:06;;;;;;;13.80;6.82;;;14.10;99.90;;;;;;5087940;28;20021;-73
2023/08/06 02:42:31;;;;;;;15.00;7.10;;;14.10;99.90;;;;;;5087459;28;20025;-71
2023/08/06 02:44:57;;;;;;;11.27;7.18;;;14.10;99.90;;;;;;5088000;28;20052;-73
2023/08/06 02:47:23;;;;;;;14.48;7.28;;;14.10;99.90;;;;;;5087926;28;20024;-72
2023/08/06 02:49:49;;;;;;;14.75;7.75;;;14.10;99.90;;;;;;5086946;28;20036;-71
2023/08/06 02:52:14;;;;;;;11.30;6.80;;;14.00;99.90;;;;;;5087385;28;20048;-73
2023/08/06 02:54:40;;;;;;;9.95;6.60;;;14.00;99.90;;;;;;5087516;28;20084;-73
2023/08/06 02:57:06;;;;;;;11.98;7.10;;;14.00;99.90;;;;;;5086918;28;20080;-72
2023/08/06 02:59:32;;;;;;;12.07;7.45;;;14.00;99.90;;;;;;5087484;28;20029;-74
2023/08/06 03:01:58;;;;;;;12.13;7.47;;;14.00;99.90;;;;;;5087300;28;20527;-72
2023/08/06 03:04:23;;;;;;;12.07;7.68;;;14.00;99.90;;;;;;5087117;28;20036;-73
2023/08/06 03:06:51;;;;;;;13.50;7.43;;;14.00;99.90;;;;;;5087188;28;20103;-71
2023/08/06 03:09:17;;;;;;;11.70;7.53;;;14.10;99.90;;;;;;5085749;28;20052;-73
2023/08/06 03:11:43;;;;;;;12.45;7.47;;;14.00;99.90;;;;;;5086843;28;20040;-72
2023/08/06 03:14:09;;;;;;;15.02;7.93;;;14.00;99.90;;;;;;5087090;28;20024;-73
2023/08/06 03:16:35;;;;;;;12.32;8.00;;;14.00;99.90;;;;;;5087088;28;20028;-73
2023/08/06 03:19:01;;;;;;;12.20;8.05;;;14.00;99.90;;;;;;5086712;28;20048;-73
2023/08/06 03:21:26;;;;;;;16.73;9.00;;;14.00;99.90;;;;;;5087189;28;20074;-73
2023/08/06 03:23:52;;;;;;;14.45;8.20;;;14.00;99.90;;;;;;5087148;28;20037;-72
2023/08/06 03:26:17;;;;;;;16.50;8.77;;;14.10;99.90;;;;;;5085303;28;20031;-72
2023/08/06 03:28:43;;;;;;;14.70;8.20;;;14.10;99.90;;;;;;5085574;28;20622;-73
2023/08/06 03:31:09;;;;;;;13.98;8.00;;;14.10;99.90;;;;;;5085140;28;20020;-73
2023/08/06 03:33:34;;;;;;;21.58;8.45;;;14.10;99.90;;;;;;5086431;28;20040;-71
2023/08/06 03:36:00;;;;;;;13.32;8.13;;;14.10;99.90;;;;;;5086714;28;20033;-72
2023/08/06 03:38:26;;;;;;;14.02;8.65;;;14.10;99.90;;;;;;5086528;28;20029;-74
2023/08/06 03:40:51;;;;;;;14.55;9.50;;;14.10;99.90;;;;;;5085387;28;20074;-73
2023/08/06 03:43:17;;;;;;;19.00;9.40;;;14.10;99.90;;;;;;5086657;28;20036;-73
2023/08/06 03:45:43;;;;;;;15.27;9.48;;;14.10;99.90;;;;;;5085558;28;20051;-73
2023/08/06 03:48:09;;;;;;;17.20;8.90;;;14.10;99.90;;;;;;5086391;28;20474;-71
2023/08/06 03:50:35;;;;;;;16.75;9.38;;;14.20;99.90;;;;;;5086216;28;20036;-72
2023/08/06 03:53:00;;;;;;;17.77;9.75;;;14.20;99.90;;;;;;5085824;28;20051;-74
2023/08/06 03:55:26;;;;;;;19.33;9.20;;;14.20;99.90;;;;;;5086575;28;20029;-73
2023/08/06 03:57:52;;;;;;;20.10;10.25;;;14.20;99.90;;;;;;5086400;28;20418;-73
2023/08/06 04:00:18;;;;;;;16.23;9.68;;;14.20;99.90;;;;;;5085935;28;20028;-73
2023/08/06 04:02:43;;;;;;;19.88;10.98;;;14.20;99.90;;;;;;5086057;28;20622;-72
2023/08/06 04:05:09;;;;;;;22.20;11.40;;;14.20;99.90;;;;;;5086023;28;20054;-73
2023/08/06 04:07:35;;;;;;;19.67;10.77;;;14.20;99.90;;;;;;5084518;28;20025;-74
2023/08/06 04:10:03;;;;;;;16.45;10.27;;;14.20;99.90;;;;;;5084754;28;20024;-74
2023/08/06 04:12:29;;;;;;;21.25;11.73;;;14.20;99.90;;;;;;5085910;28;20071;-73
2023/08/06 04:14:56;;;;;;;18.67;11.18;;;14.20;99.90;;;;;;5084535;28;20500;-74
2023/08/06 04:17:22;;;;;;;26.83;11.50;;;14.20;99.90;;;;;;5086139;28;20039;-73
2023/08/06 04:19:50;;;;;;;24.58;11.48;;;14.20;99.90;;;;;;5085495;28;20036;-72
2023/08/06 04:22:16;;;;;;;22.90;11.30;;;14.20;99.90;;;;;;5085932;28;20031;-73
2023/08/06 04:24:42;;;;;;;21.25;11.20;;;14.20;99.90;;;;;;5084540;28;20024;-74
2023/08/06 04:27:09;;;;;;;21.05;11.55;;;14.20;99.90;;;;;;5085495;28;20029;-72
2023/08/06 04:29:36;;;;;;;23.63;11.18;;;14.20;99.90;;;;;;5085585;28;20021;-73
2023/08/06 04:32:01;;;;;;;18.92;11.20;;;14.20;99.90;;;;;;5074484;28;20494;-73
2023/08/06 04:34:27;;;;;;;23.27;12.40;;;14.20;99.90;;;;;;5079179;28;20024;-73
2023/08/06 04:36:52;;;;;;;22.90;12.00;;;14.20;99.90;;;;;;5066918;28;20025;-72
2023/08/06 04:39:18;;;;;;;19.65;11.60;;;14.20;99.90;;;;;;5085414;28;20446;-72
2023/08/06 04:41:44;;;;;;;20.95;11.55;;;14.20;99.90;;;;;;5084740;28;20059;-72
2023/08/06 04:44:09;;;;;;;20.13;11.85;;;14.20;99.90;;;;;;5085193;28;20028;-72
2023/08/06 04:46:35;;;;;;;18.17;10.95;;;14.20;99.90;;;;;;5085463;28;20028;-72
2023/08/06 04:49:01;;;;;;;18.83;11.05;;;14.20;99.90;;;;;;5083297;28;20078;-73
2023/08/06 04:51:26;;;;;;;21.27;11.60;;;14.20;99.90;;;;;;5084971;28;20052;-72
2023/08/06 04:53:52;;;;;;;21.30;11.52;;;14.20;99.90;;;;;;5085450;28;20024;-72
2023/08/06 04:56:18;;;;;;;25.25;12.05;;;14.20;99.90;;;;;;5082962;28;20031;-73
2023/08/06 04:58:43;;;;;;;30.20;12.02;;;14.20;99.90;;;;;;5084918;28;20710;-73
2023/08/06 05:01:09;;;;;;;23.27;12.65;;;14.20;99.90;;;;;;5084882;28;20399;-72
2023/08/06 05:03:34;;;;;;;24.50;12.95;;;14.20;99.90;;;;;;5083238;28;20918;-73
2023/08/06 05:06:00;;;;;;;22.77;12.52;;;14.30;99.90;;;;;;5085278;28;20047;-73
2023/08/06 05:08:25;;;;;;;24.42;12.80;;;14.30;99.90;;;;;;5085002;28;20028;-74
2023/08/06 05:10:51;;;;;;;28.33;14.13;;;14.30;99.90;;;;;;5083494;28;20111;-71
2023/08/06 05:13:17;;;;;;;27.83;14.00;;;14.30;99.90;;;;;;5084872;28;20051;-73
2023/08/06 05:15:45;;;;;;;30.90;13.55;;;14.30;99.90;;;;;;5084547;28;20059;-73
2023/08/06 05:18:11;;;;;;;26.40;13.63;;;14.30;99.90;;;;;;5083430;28;20123;-73
2023/08/06 05:20:38;;;;;;;26.65;13.15;;;14.30;99.90;;;;;;5084736;28;20038;-73
2023/08/06 05:23:03;;;;;;;25.63;13.60;;;14.30;99.90;;;;;;5083092;28;20025;-74
2023/08/06 05:25:30;;;;;;;26.52;13.02;;;14.30;99.90;;;;;;5081046;28;20028;-73
2023/08/06 05:27:56;;;;;;;22.77;13.02;;;14.30;99.90;;;;;;5071763;28;20033;-72
2023/08/06 05:30:21;;;;;;;28.02;12.85;;;14.30;99.90;;;;;;5064331;28;20541;-73
2023/08/06 05:32:47;;;;;;;26.13;13.93;;;14.30;99.90;;;;;;5063176;28;20071;-72
2023/08/06 05:35:12;;;;;;;28.42;13.60;;;14.30;99.90;;;;;;5064429;28;20060;-71
2023/08/06 05:37:38;;;;;;;23.92;13.05;;;14.30;99.90;;;;;;5063958;28;20028;-72
2023/08/06 05:40:04;;;;;;;25.25;13.38;;;14.30;99.90;;;;;;5064583;28;20055;-71
2023/08/06 05:42:30;;;;;;;28.50;14.38;;;14.40;99.90;;;;;;5063300;28;20032;-72
2023/08/06 05:44:56;;;;;;;26.17;14.13;;;14.40;99.90;;;;;;5064060;28;20032;-72
2023/08/06 05:47:22;;;;;;;27.15;14.30;;;14.40;99.90;;;;;;5071131;28;20044;-72
2023/08/06 05:49:47;;;;;;;25.10;14.40;;;14.40;99.90;;;;;;5070099;28;20025;-72
2023/08/06 05:52:13;;;;;;;28.10;14.15;;;14.50;99.90;;;;;;5072837;28;20049;-73
2023/08/06 05:54:40;;;;;;;25.05;13.82;;;14.50;99.90;;;;;;5065275;28;20035;-72
2023/08/06 05:57:06;;;;;;;26.33;14.50;;;14.50;99.90;;;;;;5073934;28;20084;-72
2023/08/06 05:59:32;;;;;;;29.40;14.07;;;14.50;99.90;;;;;;5072874;28;20056;-72
2023/08/06 06:01:57;;;;;;;28.83;13.35;;;14.50;99.90;;;;;;5073241;28;20044;-73
2023/08/06 06:04:23;;;;;;;24.23;12.57;;;14.50;99.90;;;;;;5072324;28;20086;-73
2023/08/06 06:06:49;;;;;;;21.17;11.48;;;14.50;99.90;;;;;;5079623;28;20118;-72
2023/08/06 06:09:14;;;;;;;26.50;13.57;;;14.60;99.90;;;;;;5066961;28;20155;-72
2023/08/06 06:11:40;;;;;;;26.85;13.20;;;14.60;99.90;;;;;;5070359;28;20047;-74
2023/08/06 06:14:05;;;;;;;23.27;12.70;;;14.60;99.90;;;;;;5082258;28;20048;-72
2023/08/06 06:16:31;;;;;;;23.73;13.32;;;14.60;99.90;;;;;;5087075;28;20116;-73
2023/08/06 06:18:57;;;;;;;23.60;13.52;;;14.60;99.90;;;;;;5077603;28;20025;-71
2023/08/06 06:21:24;;;;;;;29.80;13.20;;;14.60;99.90;;;;;;5067884;28;20021;-72
2023/08/06 06:23:51;;;;;;;24.27;13.18;;;14.60;99.90;;;;;;5067889;28;20033;-73
2023/08/06 06:26:18;;;;;;;24.85;12.70;;;14.60;99.90;;;;;;5067851;28;20025;-72
2023/08/06 06:28:46;;;;;;;20.73;12.68;;;14.60;99.90;;;;;;5069667;28;20024;-72
2023/08/06 06:31:12;;;;;;;22.95;12.93;;;14.60;99.90;;;;;;5067173;28;20029;-72
2023/08/06 06:33:38;;;;;;;23.90;12.35;;;14.60;99.90;;;;;;5074704;28;20056;-71
2023/08/06 06:36:03;;;;;;;26.73;11.73;;;14.60;99.90;;;;;;5071704;28;20036;-73
2023/08/06 06:38:29;;;;;;;21.27;12.13;;;14.60;99.90;;;;;;5073493;28;20371;-73
2023/08/06 06:40:56;;;;;;;22.42;10.85;;;14.50;99.90;;;;;;5067950;28;20029;-73
2023/08/06 06:43:22;;;;;;;20.38;10.93;;;14.60;99.90;;;;;;5070542;28;20037;-71
2023/08/06 06:45:57;;;;;;;19.35;11.07;;;14.50;99.90;;;;;;5070275;28;20209;-74
2023/08/06 06:48:23;;;;;;;24.10;11.23;;;14.50;99.90;;;;;;5067005;28;20029;-71
2023/08/06 06:50:49;;;;;;;19.80;11.93;;;14.60;99.90;;;;;;5079615;28;20035;-74
2023/08/06 06:53:14;;;;;;;22.70;11.70;;;14.60;99.90;;;;;;5087092;28;20056;-71
2023/08/06 06:55:40;;;;;;;22.38;12.18;;;14.60;99.90;;;;;;5077010;28;20044;-72
2023/08/06 06:58:05;;;;;;;23.30;13.27;;;14.60;99.90;;;;;;5070229;28;20025;-72
2023/08/06 07:00:31;;;;;;;23.00;12.15;;;14.60;99.90;;;;;;5077074;28;20025;-73
2023/08/06 07:02:57;;;;;;;20.52;11.80;;;14.60;99.90;;;;;;5077311;28;20037;-72
2023/08/06 07:05:23;;;;;;;19.50;11.30;;;14.60;99.90;;;;;;5067452;28;20025;-72
2023/08/06 07:07:48;;;;;;;23.02;11.20;;;14.60;99.90;;;;;;5067563;28;20025;-72
2023/08/06 07:10:14;;;;;;;22.88;12.02;;;14.60;99.90;;;;;;5073142;28;20033;-72
2023/08/06 07:12:39;;;;;;;19.50;11.45;;;14.60;99.90;;;;;;5066937;28;20064;-71
2023/08/06 07:15:06;;;;;;;17.67;11.60;;;14.60;99.90;;;;;;5066116;28;20508;-72
2023/08/06 07:17:32;;;;;;;20.50;11.57;;;14.70;99.90;;;;;;5072797;28;20059;-71
2023/08/06 07:19:58;;;;;;;21.75;12.15;;;14.70;99.90;;;;;;5071734;28;20033;-71
2023/08/06 07:22:23;;;;;;;20.73;12.05;;;14.70;99.90;;;;;;5075761;28;20052;-72
2023/08/06 07:24:49;;;;;;;21.98;12.20;;;14.80;99.90;;;;;;5087171;28;20025;-73
2023/08/06 07:27:15;;;;;;;21.92;12.15;;;14.80;99.90;;;;;;5086737;28;20029;-72
2023/08/06 07:29:40;;;;;;;24.67;13.55;;;14.90;99.90;;;;;;5073099;28;20067;-73
2023/08/06 07:32:07;;;;;;;19.58;12.57;;;14.90;99.90;;;;;;5066860;28;20047;-71
2023/08/06 07:34:32;;;;;;;24.67;13.02;;;14.90;99.90;;;;;;5066599;28;20049;-70
2023/08/06 07:36:58;;;;;;;19.02;11.15;;;14.90;99.90;;;;;;5065572;28;20035;-71
2023/08/06 07:39:24;;;;;;;18.63;11.30;;;15.00;99.90;;;;;;5066956;28;20120;-72
2023/08/06 07:41:50;;;;;;;17.48;11.30;;;15.00;99.90;;;;;;5065026;28;20155;-73
2023/08/06 07:44:15;;;;;;;16.35;10.48;;;15.00;99.90;;;;;;5066916;28;20028;-72
2023/08/06 07:46:41;;;;;;;20.38;10.77;;;15.00;99.90;;;;;;5076313;28;20143;-71
2023/08/06 07:49:08;;;;;;;17.40;11.13;;;15.10;99.90;;;;;;5071325;28;20063;-71
2023/08/06 07:51:33;;;;;;;16.15;10.23;;;15.20;99.90;;;;;;5073839;28;20045;-72
2023/08/06 07:53:59;;;;;;;15.90;10.65;;;15.20;99.90;;;;;;5079985;28;20036;-73
2023/08/06 07:56:25;;;;;;;17.63;11.18;;;15.30;99.90;;;;;;5084575;28;20111;-72
2023/08/06 07:58:50;;;;;;;14.77;10.48;;;15.40;99.90;;;;;;5071132;28;20033;-72
2023/08/06 08:01:16;;;;;;;16.52;10.68;;;15.50;99.90;;;;;;5067602;28;20029;-71
2023/08/06 08:03:42;;;;;;;16.80;10.38;;;15.50;99.90;;;;;;5065636;28;20029;-71
2023/08/06 08:06:07;;;;;;;15.40;10.07;;;15.50;99.90;;;;;;5080439;28;20060;-71
2023/08/06 08:08:33;;;;;;;15.13;10.00;;;15.50;99.90;;;;;;5072795;28;20033;-71
2023/08/06 08:11:00;;;;;;;15.65;10.27;;;15.50;99.90;;;;;;5066239;28;20028;-71
2023/08/06 08:13:26;;;;;;;15.35;10.32;;;15.60;99.90;;;;;;5065248;28;20049;-71
2023/08/06 08:15:58;;;;;;;15.90;10.13;;;15.70;99.90;;;;;;5065843;28;20033;-72
2023/08/06 08:18:23;;;;;;;20.42;10.40;;;15.70;99.90;;;;;;5066742;28;20025;-70
2023/08/06 08:20:49;;;;;;;19.60;10.25;;;15.70;99.90;;;;;;5066073;28;20448;-71
2023/08/06 08:23:14;;;;;;;14.68;10.50;;;15.80;99.90;;;;;;5065386;28;20488;-70
2023/08/06 08:25:40;;;;;;;17.38;9.95;;;15.90;99.90;;;;;;5075668;28;20032;-69
2023/08/06 08:28:07;;;;;;;17.33;10.27;;;16.00;99.90;;;;;;5066398;28;20025;-71
2023/08/06 08:30:33;;;;;;;14.63;10.27;;;16.10;99.90;;;;;;5064175;28;20025;-71
2023/08/06 08:32:59;;;;;;;14.00;8.77;;;16.20;99.90;;;;;;5075276;28;20060;-72
2023/08/06 08:35:25;;;;;;;15.07;10.32;;;16.20;99.90;;;;;;5080257;28;20031;-72
2023/08/06 08:37:51;;;;;;;14.90;10.02;;;16.30;99.90;;;;;;5078927;28;20047;-71
2023/08/06 08:40:17;;;;;;;12.20;8.45;;;16.40;99.90;;;;;;5070319;28;20020;-71
2023/08/06 08:42:43;;;;;;;10.93;7.60;;;16.40;99.90;;;;;;5076719;28;20042;-72
2023/08/06 08:45:17;;;;;;;11.82;8.18;;;16.50;99.90;;;;;;5068557;28;20074;-71
2023/08/06 08:47:43;;;;;;;11.18;8.18;;;16.70;99.90;;;;;;5075222;28;20021;-71
2023/08/06 08:50:10;;;;;;;11.52;8.35;;;16.80;99.90;;;;;;5077227;28;20043;-73
2023/08/06 08:52:38;;;;;;;9.10;7.60;;;16.90;99.90;;;;;;5084392;28;20052;-72
2023/08/06 08:55:04;;;;;;;10.70;7.95;;;17.00;99.90;;;;;;5074695;28;20474;-71
2023/08/06 08:57:31;;;;;;;10.68;7.45;;;17.10;99.90;;;;;;5068462;28;20116;-72
2023/08/06 08:59:56;;;;;;;9.75;6.93;;;17.30;99.90;;;;;;5070656;28;20036;-73
2023/08/06 09:02:27;;;;;;;8.77;6.80;;;17.30;99.90;;;;;;5073746;28;20071;-73
2023/08/06 09:04:54;;;;;;;9.25;6.50;;;17.50;99.90;;;;;;5075558;28;20032;-72
2023/08/06 09:07:23;;;;;;;7.50;5.97;;;17.50;99.90;;;;;;5078048;28;20135;-72
2023/08/06 09:09:52;;;;;;;6.65;5.72;;;17.60;99.90;;;;;;5084992;28;20067;-72
2023/08/06 09:12:17;;;;;;;6.35;4.97;;;17.60;99.90;;;;;;5070093;28;20048;-72
2023/08/06 09:14:43;;;;;;;8.02;5.43;;;17.70;99.90;;;;;;5078805;28;20069;-73
2023/08/06 09:17:12;;;;;;;9.57;5.72;;;17.80;99.90;;;;;;5069718;28;20044;-71
2023/08/06 09:19:45;;;;;;;6.93;5.50;;;18.00;99.90;;;;;;5064422;28;20048;-72
2023/08/06 09:22:13;;;;;;;7.88;4.63;;;18.20;99.90;;;;;;5068935;28;20029;-71
2023/08/06 09:24:44;;;;;;;4.88;3.85;;;18.20;99.90;;;;;;5078760;28;20086;-72
2023/08/06 09:27:13;;;;;;;6.40;5.13;;;18.20;99.90;;;;;;5073508;28;20064;-71
2023/08/06 09:29:46;;;;;;;7.25;5.00;;;18.10;99.90;;;;;;5070941;28;20033;-70
2023/08/06 09:32:14;;;;;;;5.60;4.35;;;18.10;99.90;;;;;;5071812;28;20033;-72
2023/08/06 09:34:42;;;;;;;7.13;5.47;;;18.00;99.90;;;;;;5066359;28;20013;-71
2023/08/06 09:37:10;;;;;;;5.88;4.97;;;18.10;99.90;;;;;;5068898;28;20037;-72
2023/08/06 09:39:37;;;;;;;6.50;4.30;;;18.20;99.90;;;;;;5073270;28;20048;-71
2023/08/06 09:42:04;;;;;;;6.00;4.25;;;18.20;99.90;;;;;;5068160;28;20033;-71
2023/08/06 09:44:31;;;;;;;8.85;4.20;;;18.20;99.90;;;;;;5067818;28;20028;-72
2023/08/06 09:46:59;;;;;;;4.88;3.90;;;18.40;99.90;;;;;;5071538;28;20032;-69
2023/08/06 09:49:32;;;;;;;5.22;4.60;;;18.50;99.90;;;;;;5077463;28;20115;-71
2023/08/06 09:51:59;;;;;;;6.88;4.22;;;18.50;99.90;;;;;;5064970;28;20083;-70
2023/08/06 09:54:28;;;;;;;5.00;3.80;;;18.50;99.90;;;;;;5070236;28;20041;-71
2023/08/06 09:56:57;;;;;;;3.55;3.00;;;18.50;99.90;;;;;;5071024;28;20049;-70
2023/08/06 09:59:26;;;;;;;5.50;4.13;;;18.40;99.90;;;;;;5071166;28;20033;-70
2023/08/06 10:01:53;;;;;;;4.43;3.47;;;18.30;99.90;;;;;;5072082;28;20078;-71
2023/08/06 10:04:20;;;;;;;3.55;2.90;;;18.30;99.90;;;;;;5069978;28;20041;-72
2023/08/06 10:06:48;;;;;;;4.30;3.20;;;18.30;99.90;;;;;;5066900;28;20997;-70
2023/08/06 10:09:14;;;;;;;6.57;3.60;;;18.40;99.90;;;;;;5073724;28;20071;-71
2023/08/06 10:11:42;;;;;;;4.60;4.00;;;18.50;99.90;;;;;;5071532;28;20029;-70
2023/08/06 10:14:12;;;;;;;5.22;3.28;;;18.50;99.90;;;;;;5071582;28;20021;-70
2023/08/06 10:16:39;;;;;;;6.72;4.45;;;18.50;99.90;;;;;;5063467;28;20025;-69
2023/08/06 10:19:08;;;;;;;5.60;3.70;;;18.40;99.90;;;;;;5068711;28;20025;-70
2023/08/06 10:21:34;;;;;;;5.47;3.85;;;18.40;99.90;;;;;;5068992;28;20393;-71
2023/08/06 10:24:01;;;;;;;4.72;3.40;;;18.50;99.90;;;;;;5069759;28;20025;-71
2023/08/06 10:26:28;;;;;;;3.42;2.75;;;18.50;99.90;;;;;;5069738;28;20382;-70
2023/08/06 10:28:54;;;;;;;4.20;2.83;;;18.60;99.90;;;;;;5074063;28;20048;-70
2023/08/06 10:31:53;;;;;;;3.83;2.72;;;18.80;99.90;;;;;;5073669;28;20510;-71
2023/08/06 10:34:19;;;;;;;3.05;2.47;;;18.90;99.90;;;;;;5075170;28;20054;-69
2023/08/06 10:36:44;;;;;;;3.80;2.70;;;18.90;99.90;;;;;;5072569;28;20048;-71
2023/08/06 10:39:13;;;;;;;3.60;2.53;;;19.00;99.90;;;;;;5069924;28;20033;-69
2023/08/06 10:41:44;;;;;;;3.30;2.58;;;19.10;99.90;;;;;;5070914;28;20466;-69
2023/08/06 10:44:11;;;;;;;3.80;2.40;;;19.30;99.90;;;;;;5068454;28;20028;-69
2023/08/06 10:46:38;;;;;;;3.55;2.40;;;19.30;99.90;;;;;;5067142;28;20054;-71
2023/08/06 10:49:04;;;;;;;3.80;2.72;;;19.40;99.90;;;;;;5073908;28;20021;-71
2023/08/06 10:51:30;;;;;;;3.22;2.60;;;19.40;99.90;;;;;;5071062;28;20045;-71
2023/08/06 10:53:57;;;;;;;4.35;2.35;;;19.50;99.90;;;;;;5073415;28;20032;-71
2023/08/06 10:56:26;;;;;;;2.70;2.30;;;19.70;99.90;;;;;;5073709;28;20028;-70
2023/08/06 10:58:54;;;;;;;3.80;2.50;;;19.70;99.90;;;;;;5076334;28;20037;-70
2023/08/06 11:01:22;;;;;;;4.68;2.70;;;19.80;99.90;;;;;;5074166;28;20020;-71
2023/08/06 11:03:52;;;;;;;6.03;3.00;;;19.80;99.90;;;;;;5071428;28;20047;-70
2023/08/06 11:06:19;;;;;;;2.90;2.08;;;19.90;99.90;;;;;;5072757;28;20496;-70
2023/08/06 11:08:53;;;;;;;3.47;2.20;;;20.00;99.90;;;;;;5075443;28;20032;-69
2023/08/06 11:11:24;;;;;;;3.10;2.45;;;20.20;99.90;;;;;;5068713;28;20415;-70
2023/08/06 11:13:51;;;;;;;2.42;1.90;;;20.20;99.90;;;;;;5086468;28;20048;-71
2023/08/06 11:16:19;;;;;;;3.17;2.30;;;20.30;99.90;;;;;;5086456;28;20142;-70
2023/08/06 11:18:45;;;;;;;3.72;2.35;;;20.50;99.90;;;;;;5086987;28;20430;-70
2023/08/06 11:21:11;;;;;;;3.35;1.98;;;20.60;99.90;;;;;;5070177;28;20028;-70
2023/08/06 11:23:38;;;;;;;6.95;3.10;;;20.80;99.90;;;;;;5071552;28;20028;-70
2023/08/06 11:26:04;;;;;;;5.75;2.47;;;20.90;99.90;;;;;;5083658;28;20104;-71
2023/08/06 11:28:30;;;;;;;3.08;2.33;;;21.00;99.90;;;;;;5074492;28;20051;-70
2023/08/06 11:30:56;;;;;;;3.25;1.98;;;21.20;99.90;;;;;;5068690;28;20021;-72
2023/08/06 11:33:25;;;;;;;2.97;2.20;;;21.30;99.90;;;;;;5066218;28;20041;-70
2023/08/06 11:35:55;;;;;;;2.83;1.83;;;21.30;99.90;;;;;;5085118;28;20020;-71
2023/08/06 11:38:20;;;;;;;3.58;2.00;;;21.40;99.90;;;;;;5086533;28;20397;-70
2023/08/06 11:40:47;;;;;;;2.03;1.83;;;21.40;99.90;;;;;;5085821;28;20114;-70
2023/08/06 11:43:13;;;;;;;2.70;1.95;;;21.60;99.90;;;;;;5084950;28;20052;-69
2023/08/06 11:45:39;;;;;;;2.58;1.90;;;21.70;99.90;;;;;;5081925;28;20024;-70
2023/08/06 11:48:05;;;;;;;2.33;2.00;;;21.80;99.90;;;;;;5064999;28;20021;-70
2023/08/06 11:50:35;;;;;;;4.13;2.20;;;21.90;99.90;;;;;;5067380;28;20033;-71
2023/08/06 11:53:01;;;;;;;3.90;2.25;;;22.10;99.90;;;;;;5070789;28;20055;-71
2023/08/06 11:55:28;;;;;;;2.72;1.90;;;22.10;99.90;;;;;;5075321;28;20025;-72
2023/08/06 11:57:55;;;;;;;2.50;2.20;;;22.00;99.90;;;;;;5072643;28;20035;-70
2023/08/06 12:00:24;;;;;;;3.78;2.55;;;22.00;99.90;;;;;;5078700;28;20085;-73
2023/08/06 12:02:52;;;;;;;2.30;2.03;;;22.10;99.90;;;;;;5074767;28;20032;-70
2023/08/06 12:05:39;;;;;;;4.95;2.70;;;22.30;99.90;;;;;;5069877;28;20099;-71
2023/08/06 12:08:04;;;;;;;3.10;2.65;;;22.20;99.90;;;;;;5070953;28;20040;-71
2023/08/06 12:10:31;;;;;;;3.38;2.38;;;22.10;99.90;;;;;;5065151;28;20029;-71
2023/08/06 12:12:57;;;;;;;2.35;2.13;;;22.30;99.90;;;;;;5057939;28;20041;-71
2023/08/06 12:15:23;;;;;;;2.55;2.35;;;22.60;99.90;;;;;;5061533;28;20044;-71
2023/08/06 12:17:49;;;;;;;3.97;2.75;;;22.80;99.90;;;;;;5068105;28;20071;-71
2023/08/06 12:20:15;;;;;;;4.93;2.33;;;23.00;99.90;;;;;;5074547;28;20043;-70
2023/08/06 12:22:41;;;;;;;2.95;2.47;;;22.90;99.90;;;;;;5072277;28;20021;-71
2023/08/06 12:25:10;;;;;;;6.15;2.70;;;22.60;99.90;;;;;;5075298;28;20461;-70
2023/08/06 12:27:36;;;;;;;3.22;2.67;;;22.30;99.90;;;;;;5078125;28;20060;-71
2023/08/06 12:30:03;;;;;;;3.28;2.58;;;21.90;99.90;;;;;;5071175;28;20074;-71
2023/08/06 12:32:29;;;;;;;4.53;2.63;;;21.60;99.90;;;;;;5072638;28;20044;-71
2023/08/06 12:34:55;;;;;;;3.95;2.83;;;21.30;99.90;;;;;;5073922;28;20033;-71